sensor_id;sensor_type;location;lat;lon;timestamp;pressure;altitude;pressure_sealevel;temperature;humidity
58223;BME280;44020;50.890;15.796;2023-01-15T00:02:17;96413.43;;;7.87;64.83
58223;BME280;44020;50.890;15.796;2023-01-15T00:04:45;96414.88;;;7.87;65.13
58223;BME280;44020;50.890;15.796;2023-01-15T00:07:12;96422.66;;;7.87;64.95
58223;BME280;44020;50.890;15.796;2023-01-15T00:09:39;96429.87;;;7.87;65.08
58223;BME280;44020;50.890;15.796;2023-01-15T00:12:07;96418.64;;;7.86;64.94
58223;BME280;44020;50.890;15.796;2023-01-15T00:14:35;96409.91;;;7.85;65.01
58223;BME280;44020;50.890;15.796;2023-01-15T00:17:02;96408.06;;;7.84;65.15
58223;BME280;44020;50.890;15.796;2023-01-15T00:19:30;96400.13;;;7.84;65.35
58223;BME280;44020;50.890;15.796;2023-01-15T00:21:58;96400.10;;;7.84;65.53
58223;BME280;44020;50.890;15.796;2023-01-15T00:24:26;96403.08;;;7.85;65.45
58223;BME280;44020;50.890;15.796;2023-01-15T00:27:13;96395.50;;;7.86;65.65
58223;BME280;44020;50.890;15.796;2023-01-15T00:29:59;96396.46;;;7.87;65.54
58223;BME280;44020;50.890;15.796;2023-01-15T00:32:27;96383.61;;;7.87;65.61
58223;BME280;44020;50.890;15.796;2023-01-15T00:34:57;96393.06;;;7.86;65.78
58223;BME280;44020;50.890;15.796;2023-01-15T00:37:25;96388.98;;;7.84;66.21
58223;BME280;44020;50.890;15.796;2023-01-15T00:39:53;96408.47;;;7.83;66.14
58223;BME280;44020;50.890;15.796;2023-01-15T00:42:21;96403.29;;;7.82;66.25
58223;BME280;44020;50.890;15.796;2023-01-15T00:44:48;96395.59;;;7.77;66.44
58223;BME280;44020;50.890;15.796;2023-01-15T00:47:16;96397.73;;;7.74;66.24
58223;BME280;44020;50.890;15.796;2023-01-15T00:49:44;96390.55;;;7.73;66.38
58223;BME280;44020;50.890;15.796;2023-01-15T00:52:12;96384.04;;;7.70;66.50
58223;BME280;44020;50.890;15.796;2023-01-15T00:54:39;96387.64;;;7.67;66.37
58223;BME280;44020;50.890;15.796;2023-01-15T00:57:06;96398.77;;;7.65;66.52
58223;BME280;44020;50.890;15.796;2023-01-15T00:59:37;96394.88;;;7.65;66.62
58223;BME280;44020;50.890;15.796;2023-01-15T01:02:04;96396.36;;;7.66;66.72
58223;BME280;44020;50.890;15.796;2023-01-15T01:04:32;96401.56;;;7.68;66.90
58223;BME280;44020;50.890;15.796;2023-01-15T01:07:00;96412.66;;;7.66;66.92
58223;BME280;44020;50.890;15.796;2023-01-15T01:09:28;96416.56;;;7.66;67.07
58223;BME280;44020;50.890;15.796;2023-01-15T01:11:56;96401.42;;;7.65;67.04
58223;BME280;44020;50.890;15.796;2023-01-15T01:14:24;96397.86;;;7.65;67.61
58223;BME280;44020;50.890;15.796;2023-01-15T01:16:52;96395.59;;;7.65;67.58
58223;BME280;44020;50.890;15.796;2023-01-15T01:19:22;96397.45;;;7.66;67.60
58223;BME280;44020;50.890;15.796;2023-01-15T01:21:50;96396.56;;;7.66;67.71
58223;BME280;44020;50.890;15.796;2023-01-15T01:24:20;96388.65;;;7.65;67.87
58223;BME280;44020;50.890;15.796;2023-01-15T01:26:48;96376.42;;;7.64;67.85
58223;BME280;44020;50.890;15.796;2023-01-15T01:29:19;96374.73;;;7.65;67.98
58223;BME280;44020;50.890;15.796;2023-01-15T01:31:46;96370.07;;;7.66;68.14
58223;BME280;44020;50.890;15.796;2023-01-15T01:34:14;96367.95;;;7.66;68.22
58223;BME280;44020;50.890;15.796;2023-01-15T01:36:42;96364.23;;;7.68;68.37
58223;BME280;44020;50.890;15.796;2023-01-15T01:39:15;96355.32;;;7.67;68.70
58223;BME280;44020;50.890;15.796;2023-01-15T01:41:44;96351.14;;;7.66;68.81
58223;BME280;44020;50.890;15.796;2023-01-15T01:47:20;96358.45;;;7.63;68.77
58223;BME280;44020;50.890;15.796;2023-01-15T01:49:55;96352.64;;;7.63;69.30
58223;BME280;44020;50.890;15.796;2023-01-15T01:52:28;96335.90;;;7.62;69.14
58223;BME280;44020;50.890;15.796;2023-01-15T01:54:59;96337.04;;;7.61;69.34
58223;BME280;44020;50.890;15.796;2023-01-15T01:57:27;96336.30;;;7.62;69.69
58223;BME280;44020;50.890;15.796;2023-01-15T01:59:56;96343.48;;;7.65;70.04
58223;BME280;44020;50.890;15.796;2023-01-15T02:02:25;96345.58;;;7.67;69.90
58223;BME280;44020;50.890;15.796;2023-01-15T02:04:53;96345.81;;;7.69;70.42
58223;BME280;44020;50.890;15.796;2023-01-15T02:07:20;96347.78;;;7.70;70.39
58223;BME280;44020;50.890;15.796;2023-01-15T02:09:48;96354.16;;;7.73;70.56
58223;BME280;44020;50.890;15.796;2023-01-15T02:12:24;96354.03;;;7.75;70.60
58223;BME280;44020;50.890;15.796;2023-01-15T02:15:25;96355.65;;;7.76;70.77
58223;BME280;44020;50.890;15.796;2023-01-15T02:26:19;96342.36;;;7.87;71.41
58223;BME280;44020;50.890;15.796;2023-01-15T02:28:54;96337.20;;;7.90;71.30
58223;BME280;44020;50.890;15.796;2023-01-15T02:31:33;96340.34;;;7.93;71.50
58223;BME280;44020;50.890;15.796;2023-01-15T02:34:09;96321.05;;;7.95;71.59
58223;BME280;44020;50.890;15.796;2023-01-15T02:36:43;96311.64;;;7.98;71.76
58223;BME280;44020;50.890;15.796;2023-01-15T02:39:14;96316.55;;;8.00;71.77
58223;BME280;44020;50.890;15.796;2023-01-15T02:41:48;96315.17;;;8.02;71.82
58223;BME280;44020;50.890;15.796;2023-01-15T02:44:19;96300.76;;;8.05;72.08
58223;BME280;44020;50.890;15.796;2023-01-15T02:46:49;96294.30;;;8.06;72.09
58223;BME280;44020;50.890;15.796;2023-01-15T02:49:19;96304.02;;;8.08;72.19
58223;BME280;44020;50.890;15.796;2023-01-15T02:51:52;96302.73;;;8.11;72.12
58223;BME280;44020;50.890;15.796;2023-01-15T02:54:26;96301.98;;;8.14;72.22
58223;BME280;44020;50.890;15.796;2023-01-15T02:56:56;96296.02;;;8.16;72.38
58223;BME280;44020;50.890;15.796;2023-01-15T02:59:34;96302.91;;;8.18;72.36
58223;BME280;44020;50.890;15.796;2023-01-15T03:02:06;96296.52;;;8.20;72.52
58223;BME280;44020;50.890;15.796;2023-01-15T03:04:46;96289.96;;;8.22;72.43
58223;BME280;44020;50.890;15.796;2023-01-15T03:07:21;96289.55;;;8.25;72.53
58223;BME280;44020;50.890;15.796;2023-01-15T03:09:52;96273.43;;;8.27;72.61
58223;BME280;44020;50.890;15.796;2023-01-15T03:12:43;96265.48;;;8.29;72.83
58223;BME280;44020;50.890;15.796;2023-01-15T03:18:21;96258.95;;;8.35;72.49
58223;BME280;44020;50.890;15.796;2023-01-15T03:20:51;96259.20;;;8.37;72.54
58223;BME280;44020;50.890;15.796;2023-01-15T03:23:23;96263.95;;;8.37;72.60
58223;BME280;44020;50.890;15.796;2023-01-15T03:25:53;96245.17;;;8.37;72.55
58223;BME280;44020;50.890;15.796;2023-01-15T03:28:25;96250.25;;;8.38;72.52
58223;BME280;44020;50.890;15.796;2023-01-15T03:30:53;96256.14;;;8.40;72.56
58223;BME280;44020;50.890;15.796;2023-01-15T03:33:20;96255.05;;;8.42;72.59
58223;BME280;44020;50.890;15.796;2023-01-15T03:35:51;96262.49;;;8.44;72.74
58223;BME280;44020;50.890;15.796;2023-01-15T03:38:24;96272.30;;;8.48;72.92
58223;BME280;44020;50.890;15.796;2023-01-15T03:41:14;96262.54;;;8.52;72.76
58223;BME280;44020;50.890;15.796;2023-01-15T03:49:24;96253.00;;;8.60;71.91
58223;BME280;44020;50.890;15.796;2023-01-15T03:54:42;96237.92;;;8.61;71.93
58223;BME280;44020;50.890;15.796;2023-01-15T03:59:56;96233.69;;;8.60;72.22
58223;BME280;44020;50.890;15.796;2023-01-15T04:02:26;96223.85;;;8.62;72.52
58223;BME280;44020;50.890;15.796;2023-01-15T04:04:57;96214.35;;;8.63;72.55
58223;BME280;44020;50.890;15.796;2023-01-15T04:07:26;96209.98;;;8.64;72.86
58223;BME280;44020;50.890;15.796;2023-01-15T04:09:54;96189.12;;;8.66;72.95
58223;BME280;44020;50.890;15.796;2023-01-15T04:12:21;96187.98;;;8.67;72.91
58223;BME280;44020;50.890;15.796;2023-01-15T04:14:49;96180.56;;;8.67;72.87
58223;BME280;44020;50.890;15.796;2023-01-15T04:17:16;96175.27;;;8.66;72.91
58223;BME280;44020;50.890;15.796;2023-01-15T04:19:44;96160.38;;;8.67;72.85
58223;BME280;44020;50.890;15.796;2023-01-15T04:22:12;96164.36;;;8.66;72.95
58223;BME280;44020;50.890;15.796;2023-01-15T04:24:40;96150.83;;;8.65;72.73
58223;BME280;44020;50.890;15.796;2023-01-15T04:27:07;96145.78;;;8.63;72.95
58223;BME280;44020;50.890;15.796;2023-01-15T04:29:35;96148.48;;;8.63;73.10
58223;BME280;44020;50.890;15.796;2023-01-15T04:32:02;96139.86;;;8.63;73.27
58223;BME280;44020;50.890;15.796;2023-01-15T04:34:30;96137.36;;;8.62;73.41
58223;BME280;44020;50.890;15.796;2023-01-15T04:36:58;96134.30;;;8.65;73.39
58223;BME280;44020;50.890;15.796;2023-01-15T04:39:25;96134.42;;;8.68;73.47
58223;BME280;44020;50.890;15.796;2023-01-15T04:41:52;96133.93;;;8.71;73.40
58223;BME280;44020;50.890;15.796;2023-01-15T04:44:38;96125.68;;;8.73;73.12
58223;BME280;44020;50.890;15.796;2023-01-15T04:47:06;96123.10;;;8.74;73.02
58223;BME280;44020;50.890;15.796;2023-01-15T04:49:34;96131.05;;;8.76;72.93
58223;BME280;44020;50.890;15.796;2023-01-15T04:52:02;96124.48;;;8.78;72.88
58223;BME280;44020;50.890;15.796;2023-01-15T04:54:30;96125.52;;;8.79;72.86
58223;BME280;44020;50.890;15.796;2023-01-15T04:56:58;96127.25;;;8.79;72.78
58223;BME280;44020;50.890;15.796;2023-01-15T04:59:26;96136.56;;;8.78;72.93
58223;BME280;44020;50.890;15.796;2023-01-15T05:01:53;96127.88;;;8.76;72.89
58223;BME280;44020;50.890;15.796;2023-01-15T05:04:21;96113.61;;;8.73;73.14
58223;BME280;44020;50.890;15.796;2023-01-15T05:06:49;96107.99;;;8.72;73.23
58223;BME280;44020;50.890;15.796;2023-01-15T05:09:17;96103.07;;;8.72;73.32
58223;BME280;44020;50.890;15.796;2023-01-15T05:11:45;96105.16;;;8.70;73.46
58223;BME280;44020;50.890;15.796;2023-01-15T05:14:12;96079.54;;;8.72;73.39
58223;BME280;44020;50.890;15.796;2023-01-15T05:16:40;96094.77;;;8.76;73.30
58223;BME280;44020;50.890;15.796;2023-01-15T05:19:09;96094.33;;;8.79;73.33
58223;BME280;44020;50.890;15.796;2023-01-15T05:21:40;96095.35;;;8.81;73.11
58223;BME280;44020;50.890;15.796;2023-01-15T05:24:14;96104.41;;;8.85;72.98
58223;BME280;44020;50.890;15.796;2023-01-15T05:26:42;96121.42;;;8.87;72.86
58223;BME280;44020;50.890;15.796;2023-01-15T05:29:11;96118.66;;;8.90;72.76
58223;BME280;44020;50.890;15.796;2023-01-15T05:31:39;96129.39;;;8.90;72.65
58223;BME280;44020;50.890;15.796;2023-01-15T05:34:09;96117.73;;;8.92;72.65
58223;BME280;44020;50.890;15.796;2023-01-15T05:36:37;96116.38;;;8.93;72.53
58223;BME280;44020;50.890;15.796;2023-01-15T05:39:04;96116.23;;;8.95;72.23
58223;BME280;44020;50.890;15.796;2023-01-15T05:41:32;96121.11;;;8.94;72.13
58223;BME280;44020;50.890;15.796;2023-01-15T05:44:16;96118.35;;;8.93;72.20
58223;BME280;44020;50.890;15.796;2023-01-15T05:46:45;96129.73;;;8.93;72.22
58223;BME280;44020;50.890;15.796;2023-01-15T05:49:19;96129.77;;;8.92;71.79
58223;BME280;44020;50.890;15.796;2023-01-15T05:51:47;96145.84;;;8.91;71.82
58223;BME280;44020;50.890;15.796;2023-01-15T05:54:19;96144.81;;;8.91;71.92
58223;BME280;44020;50.890;15.796;2023-01-15T05:56:46;96134.66;;;8.89;71.97
58223;BME280;44020;50.890;15.796;2023-01-15T05:59:16;96140.53;;;8.87;71.94
58223;BME280;44020;50.890;15.796;2023-01-15T06:01:44;96140.42;;;8.86;72.00
58223;BME280;44020;50.890;15.796;2023-01-15T06:04:13;96149.20;;;8.87;71.97
58223;BME280;44020;50.890;15.796;2023-01-15T06:06:42;96132.96;;;8.84;72.09
58223;BME280;44020;50.890;15.796;2023-01-15T06:09:09;96134.55;;;8.83;72.34
58223;BME280;44020;50.890;15.796;2023-01-15T06:11:37;96114.21;;;8.82;72.43
58223;BME280;44020;50.890;15.796;2023-01-15T06:14:06;96124.04;;;8.83;72.20
58223;BME280;44020;50.890;15.796;2023-01-15T06:16:33;96120.29;;;8.84;72.23
58223;BME280;44020;50.890;15.796;2023-01-15T06:19:03;96120.83;;;8.84;72.18
58223;BME280;44020;50.890;15.796;2023-01-15T06:21:32;96121.46;;;8.84;72.15
58223;BME280;44020;50.890;15.796;2023-01-15T06:24:02;96122.29;;;8.85;72.14
58223;BME280;44020;50.890;15.796;2023-01-15T06:26:29;96122.12;;;8.85;72.36
58223;BME280;44020;50.890;15.796;2023-01-15T06:28:57;96124.02;;;8.85;72.16
58223;BME280;44020;50.890;15.796;2023-01-15T06:31:24;96120.49;;;8.85;72.01
58223;BME280;44020;50.890;15.796;2023-01-15T06:33:53;96112.58;;;8.85;71.81
58223;BME280;44020;50.890;15.796;2023-01-15T06:36:23;96109.76;;;8.85;71.69
58223;BME280;44020;50.890;15.796;2023-01-15T06:38:52;96107.95;;;8.83;71.75
58223;BME280;44020;50.890;15.796;2023-01-15T06:41:23;96112.71;;;8.81;71.77
58223;BME280;44020;50.890;15.796;2023-01-15T06:44:13;96117.47;;;8.82;71.48
58223;BME280;44020;50.890;15.796;2023-01-15T06:47:02;96111.22;;;8.80;71.42
58223;BME280;44020;50.890;15.796;2023-01-15T06:49:56;96111.39;;;8.80;71.44
58223;BME280;44020;50.890;15.796;2023-01-15T06:52:26;96102.16;;;8.80;71.41
58223;BME280;44020;50.890;15.796;2023-01-15T06:54:55;96094.73;;;8.82;71.43
58223;BME280;44020;50.890;15.796;2023-01-15T06:57:23;96101.89;;;8.83;71.24
58223;BME280;44020;50.890;15.796;2023-01-15T06:59:50;96093.26;;;8.85;71.22
58223;BME280;44020;50.890;15.796;2023-01-15T07:02:18;96095.77;;;8.86;71.04
58223;BME280;44020;50.890;15.796;2023-01-15T07:04:47;96091.18;;;8.86;70.94
58223;BME280;44020;50.890;15.796;2023-01-15T07:07:17;96094.70;;;8.86;70.66
58223;BME280;44020;50.890;15.796;2023-01-15T07:09:44;96080.52;;;8.86;70.64
58223;BME280;44020;50.890;15.796;2023-01-15T07:12:12;96084.38;;;8.87;70.63
58223;BME280;44020;50.890;15.796;2023-01-15T07:14:40;96079.56;;;8.88;70.46
58223;BME280;44020;50.890;15.796;2023-01-15T07:17:07;96077.44;;;8.87;70.33
58223;BME280;44020;50.890;15.796;2023-01-15T07:19:36;96067.31;;;8.88;70.28
58223;BME280;44020;50.890;15.796;2023-01-15T07:22:04;96073.80;;;8.88;70.27
58223;BME280;44020;50.890;15.796;2023-01-15T07:24:32;96075.82;;;8.90;70.20
58223;BME280;44020;50.890;15.796;2023-01-15T07:27:00;96070.11;;;8.90;70.28
58223;BME280;44020;50.890;15.796;2023-01-15T07:29:28;96066.79;;;8.89;70.26
58223;BME280;44020;50.890;15.796;2023-01-15T07:31:55;96059.65;;;8.90;70.45
58223;BME280;44020;50.890;15.796;2023-01-15T07:34:23;96052.91;;;8.92;70.13
58223;BME280;44020;50.890;15.796;2023-01-15T07:36:50;96056.44;;;8.92;70.13
58223;BME280;44020;50.890;15.796;2023-01-15T07:39:17;96058.81;;;8.93;70.17
58223;BME280;44020;50.890;15.796;2023-01-15T07:41:44;96055.15;;;8.95;70.18
58223;BME280;44020;50.890;15.796;2023-01-15T07:44:31;96047.25;;;8.96;70.02
58223;BME280;44020;50.890;15.796;2023-01-15T07:47:20;96053.73;;;8.99;70.07
58223;BME280;44020;50.890;15.796;2023-01-15T07:50:12;96062.57;;;8.99;69.91
58223;BME280;44020;50.890;15.796;2023-01-15T07:52:40;96060.73;;;9.00;69.90
58223;BME280;44020;50.890;15.796;2023-01-15T07:55:08;96067.55;;;9.01;69.88
58223;BME280;44020;50.890;15.796;2023-01-15T07:57:42;96064.95;;;9.02;69.92
58223;BME280;44020;50.890;15.796;2023-01-15T08:00:12;96054.54;;;9.04;69.65
58223;BME280;44020;50.890;15.796;2023-01-15T08:02:40;96060.09;;;9.05;69.69
58223;BME280;44020;50.890;15.796;2023-01-15T08:05:08;96055.68;;;9.07;69.56
58223;BME280;44020;50.890;15.796;2023-01-15T08:07:39;96043.05;;;9.07;69.60
58223;BME280;44020;50.890;15.796;2023-01-15T08:10:09;96032.70;;;9.08;69.67
58223;BME280;44020;50.890;15.796;2023-01-15T08:12:37;96026.98;;;9.09;69.62
58223;BME280;44020;50.890;15.796;2023-01-15T08:15:25;96037.10;;;9.11;69.55
58223;BME280;44020;50.890;15.796;2023-01-15T08:17:53;96033.60;;;9.12;69.23
58223;BME280;44020;50.890;15.796;2023-01-15T08:20:24;96031.30;;;9.12;69.07
58223;BME280;44020;50.890;15.796;2023-01-15T08:22:52;96029.95;;;9.11;69.19
58223;BME280;44020;50.890;15.796;2023-01-15T08:25:24;96031.65;;;9.12;69.08
58223;BME280;44020;50.890;15.796;2023-01-15T08:27:52;96033.92;;;9.14;69.09
58223;BME280;44020;50.890;15.796;2023-01-15T08:30:22;96031.13;;;9.13;69.14
58223;BME280;44020;50.890;15.796;2023-01-15T08:32:50;96028.70;;;9.15;69.34
58223;BME280;44020;50.890;15.796;2023-01-15T08:35:18;96010.59;;;9.17;69.48
58223;BME280;44020;50.890;15.796;2023-01-15T08:37:45;96007.38;;;9.20;69.64
58223;BME280;44020;50.890;15.796;2023-01-15T08:40:14;96012.39;;;9.23;69.65
58223;BME280;44020;50.890;15.796;2023-01-15T08:42:42;96005.64;;;9.25;69.61
58223;BME280;44020;50.890;15.796;2023-01-15T08:45:10;96012.58;;;9.27;69.62
58223;BME280;44020;50.890;15.796;2023-01-15T08:47:37;95999.39;;;9.29;69.71
58223;BME280;44020;50.890;15.796;2023-01-15T08:50:05;96011.36;;;9.32;69.57
58223;BME280;44020;50.890;15.796;2023-01-15T08:52:34;96001.63;;;9.36;69.72
58223;BME280;44020;50.890;15.796;2023-01-15T08:55:06;95994.98;;;9.39;69.50
58223;BME280;44020;50.890;15.796;2023-01-15T08:57:33;95985.16;;;9.40;69.51
58223;BME280;44020;50.890;15.796;2023-01-15T09:00:00;95979.05;;;9.44;69.20
58223;BME280;44020;50.890;15.796;2023-01-15T09:02:28;95970.31;;;9.47;69.22
58223;BME280;44020;50.890;15.796;2023-01-15T09:04:56;95974.56;;;9.49;69.14
58223;BME280;44020;50.890;15.796;2023-01-15T09:07:23;95968.15;;;9.51;69.02
58223;BME280;44020;50.890;15.796;2023-01-15T09:09:51;95974.04;;;9.51;68.86
58223;BME280;44020;50.890;15.796;2023-01-15T09:12:19;95972.21;;;9.51;68.95
58223;BME280;44020;50.890;15.796;2023-01-15T09:14:50;95982.53;;;9.54;68.82
58223;BME280;44020;50.890;15.796;2023-01-15T09:17:18;95986.58;;;9.53;68.93
58223;BME280;44020;50.890;15.796;2023-01-15T09:19:46;96003.27;;;9.54;68.88
58223;BME280;44020;50.890;15.796;2023-01-15T09:22:14;95996.37;;;9.58;68.58
58223;BME280;44020;50.890;15.796;2023-01-15T09:24:42;96013.70;;;9.58;68.77
58223;BME280;44020;50.890;15.796;2023-01-15T09:27:11;96015.83;;;9.58;68.56
58223;BME280;44020;50.890;15.796;2023-01-15T09:29:38;96009.25;;;9.59;68.44
58223;BME280;44020;50.890;15.796;2023-01-15T09:32:06;96029.68;;;9.58;68.47
58223;BME280;44020;50.890;15.796;2023-01-15T09:34:36;96025.08;;;9.58;68.31
58223;BME280;44020;50.890;15.796;2023-01-15T09:37:04;96032.18;;;9.56;68.57
58223;BME280;44020;50.890;15.796;2023-01-15T09:39:31;96026.02;;;9.57;68.64
58223;BME280;44020;50.890;15.796;2023-01-15T09:50:29;96008.63;;;9.64;68.80
58223;BME280;44020;50.890;15.796;2023-01-15T09:55:49;96026.66;;;9.70;68.57
58223;BME280;44020;50.890;15.796;2023-01-15T09:58:20;96038.82;;;9.69;68.60
58223;BME280;44020;50.890;15.796;2023-01-15T10:00:50;96033.81;;;9.69;68.37
58223;BME280;44020;50.890;15.796;2023-01-15T10:06:15;96027.66;;;9.74;68.34
58223;BME280;44020;50.890;15.796;2023-01-15T10:08:47;96024.69;;;9.76;68.34
58223;BME280;44020;50.890;15.796;2023-01-15T10:11:20;96021.02;;;9.77;68.37
58223;BME280;44020;50.890;15.796;2023-01-15T10:14:08;96010.88;;;9.79;68.20
58223;BME280;44020;50.890;15.796;2023-01-15T10:16:40;96018.11;;;9.78;68.22
58223;BME280;44020;50.890;15.796;2023-01-15T10:19:09;96016.26;;;9.76;68.26
58223;BME280;44020;50.890;15.796;2023-01-15T10:22:02;96007.54;;;9.77;68.05
58223;BME280;44020;50.890;15.796;2023-01-15T10:24:37;96013.98;;;9.78;68.28
58223;BME280;44020;50.890;15.796;2023-01-15T10:27:20;96015.04;;;9.80;68.34
58223;BME280;44020;50.890;15.796;2023-01-15T10:29:53;96015.58;;;9.80;68.18
58223;BME280;44020;50.890;15.796;2023-01-15T10:32:46;96022.86;;;9.82;68.20
58223;BME280;44020;50.890;15.796;2023-01-15T10:36:06;96017.80;;;9.81;68.08
58223;BME280;44020;50.890;15.796;2023-01-15T10:39:18;96020.45;;;9.79;68.12
58223;BME280;44020;50.890;15.796;2023-01-15T10:41:48;96008.27;;;9.78;68.33
58223;BME280;44020;50.890;15.796;2023-01-15T10:44:36;95994.96;;;9.80;68.45
58223;BME280;44020;50.890;15.796;2023-01-15T10:47:12;96003.35;;;9.82;68.56
58223;BME280;44020;50.890;15.796;2023-01-15T10:49:42;95997.16;;;9.84;68.51
58223;BME280;44020;50.890;15.796;2023-01-15T10:52:22;96011.98;;;9.85;68.44
58223;BME280;44020;50.890;15.796;2023-01-15T10:55:00;96015.54;;;9.86;68.64
58223;BME280;44020;50.890;15.796;2023-01-15T10:57:40;96024.77;;;9.88;68.33
58223;BME280;44020;50.890;15.796;2023-01-15T11:00:11;96031.00;;;9.88;68.31
58223;BME280;44020;50.890;15.796;2023-01-15T11:03:14;96039.45;;;9.89;68.17
58223;BME280;44020;50.890;15.796;2023-01-15T11:05:38;96036.98;;;9.85;68.08
58223;BME280;44020;50.890;15.796;2023-01-15T11:08:24;96042.08;;;9.85;67.91
58223;BME280;44020;50.890;15.796;2023-01-15T11:11:42;96060.59;;;9.77;67.83
58223;BME280;44020;50.890;15.796;2023-01-15T11:14:42;96064.40;;;9.70;68.00
58223;BME280;44020;50.890;15.796;2023-01-15T11:17:42;96080.73;;;9.68;67.89
58223;BME280;44020;50.890;15.796;2023-01-15T11:20:35;96089.77;;;9.57;68.08
58223;BME280;44020;50.890;15.796;2023-01-15T11:23:08;96087.40;;;9.38;68.28
58223;BME280;44020;50.890;15.796;2023-01-15T11:25:37;96103.13;;;9.09;69.08
58223;BME280;44020;50.890;15.796;2023-01-15T11:28:06;96101.24;;;8.71;70.20
58223;BME280;44020;50.890;15.796;2023-01-15T11:30:36;96093.36;;;8.41;70.67
58223;BME280;44020;50.890;15.796;2023-01-15T11:33:23;96117.81;;;8.29;71.45
58223;BME280;44020;50.890;15.796;2023-01-15T11:35:54;96117.54;;;8.07;72.59
58223;BME280;44020;50.890;15.796;2023-01-15T11:38:45;96119.08;;;7.85;72.97
58223;BME280;44020;50.890;15.796;2023-01-15T11:41:26;96144.29;;;7.73;73.77
58223;BME280;44020;50.890;15.796;2023-01-15T11:44:26;96129.88;;;7.51;74.52
58223;BME280;44020;50.890;15.796;2023-01-15T11:47:16;96151.23;;;7.39;75.01
58223;BME280;44020;50.890;15.796;2023-01-15T11:50:15;96145.44;;;7.20;75.05
58223;BME280;44020;50.890;15.796;2023-01-15T11:53:03;96163.66;;;7.16;75.47
58223;BME280;44020;50.890;15.796;2023-01-15T11:55:33;96168.50;;;7.06;75.86
58223;BME280;44020;50.890;15.796;2023-01-15T11:58:01;96165.17;;;6.97;76.10
58223;BME280;44020;50.890;15.796;2023-01-15T12:00:40;96178.66;;;6.94;77.22
58223;BME280;44020;50.890;15.796;2023-01-15T12:03:14;96182.61;;;6.80;77.37
58223;BME280;44020;50.890;15.796;2023-01-15T12:05:46;96180.77;;;6.72;77.42
58223;BME280;44020;50.890;15.796;2023-01-15T12:08:29;96180.50;;;6.69;77.75
58223;BME280;44020;50.890;15.796;2023-01-15T12:11:07;96194.28;;;6.69;77.88
58223;BME280;44020;50.890;15.796;2023-01-15T12:14:06;96192.47;;;6.56;78.02
58223;BME280;44020;50.890;15.796;2023-01-15T12:16:51;96197.02;;;6.50;78.74
58223;BME280;44020;50.890;15.796;2023-01-15T12:19:36;96202.54;;;6.37;78.88
58223;BME280;44020;50.890;15.796;2023-01-15T12:22:28;96211.63;;;6.23;79.67
58223;BME280;44020;50.890;15.796;2023-01-15T12:25:14;96219.21;;;6.11;79.73
58223;BME280;44020;50.890;15.796;2023-01-15T12:27:49;96217.86;;;6.10;79.48
58223;BME280;44020;50.890;15.796;2023-01-15T12:30:52;96207.34;;;6.10;79.55
58223;BME280;44020;50.890;15.796;2023-01-15T12:36:09;96220.08;;;6.09;79.72
58223;BME280;44020;50.890;15.796;2023-01-15T12:41:33;96212.63;;;6.09;80.03
58223;BME280;44020;50.890;15.796;2023-01-15T12:44:37;96225.63;;;6.08;79.98
58223;BME280;44020;50.890;15.796;2023-01-15T12:50:56;96253.13;;;5.98;80.24
58223;BME280;44020;50.890;15.796;2023-01-15T12:53:31;96245.27;;;5.92;79.78
58223;BME280;44020;50.890;15.796;2023-01-15T13:01:17;96233.27;;;5.78;80.57
58223;BME280;44020;50.890;15.796;2023-01-15T13:03:57;96240.16;;;5.81;81.03
58223;BME280;44020;50.890;15.796;2023-01-15T13:06:26;96243.39;;;5.77;80.47
58223;BME280;44020;50.890;15.796;2023-01-15T13:11:28;96262.48;;;5.74;80.51
58223;BME280;44020;50.890;15.796;2023-01-15T13:13:55;96258.44;;;5.79;80.55
58223;BME280;44020;50.890;15.796;2023-01-15T13:22:24;96271.34;;;5.90;80.18
58223;BME280;44020;50.890;15.796;2023-01-15T13:30:47;96291.77;;;5.95;80.10
58223;BME280;44020;50.890;15.796;2023-01-15T13:36:17;96297.40;;;5.93;79.94
58223;BME280;44020;50.890;15.796;2023-01-15T13:38:47;96297.36;;;5.94;79.68
58223;BME280;44020;50.890;15.796;2023-01-15T13:41:26;96305.97;;;5.94;79.48
58223;BME280;44020;50.890;15.796;2023-01-15T13:44:23;96298.27;;;5.91;79.30
58223;BME280;44020;50.890;15.796;2023-01-15T13:47:07;96300.91;;;5.88;79.49
58223;BME280;44020;50.890;15.796;2023-01-15T13:49:46;96318.23;;;5.88;79.39
58223;BME280;44020;50.890;15.796;2023-01-15T13:52:33;96328.20;;;5.89;79.17
58223;BME280;44020;50.890;15.796;2023-01-15T13:55:10;96321.86;;;5.89;79.62
58223;BME280;44020;50.890;15.796;2023-01-15T13:57:41;96314.88;;;5.88;79.34
58223;BME280;44020;50.890;15.796;2023-01-15T14:02:56;96304.28;;;5.88;79.23
58223;BME280;44020;50.890;15.796;2023-01-15T14:05:34;96323.65;;;5.86;78.51
58223;BME280;44020;50.890;15.796;2023-01-15T14:08:14;96322.02;;;5.84;78.80
58223;BME280;44020;50.890;15.796;2023-01-15T14:10:44;96320.80;;;5.89;79.28
58223;BME280;44020;50.890;15.796;2023-01-15T14:27:21;96325.83;;;6.05;79.05
58223;BME280;44020;50.890;15.796;2023-01-15T14:35:21;96310.31;;;6.10;78.30
58223;BME280;44020;50.890;15.796;2023-01-15T14:37:55;96303.66;;;6.11;78.21
58223;BME280;44020;50.890;15.796;2023-01-15T14:40:28;96304.63;;;6.13;77.88
58223;BME280;44020;50.890;15.796;2023-01-15T14:43:09;96309.19;;;6.13;77.48
58223;BME280;44020;50.890;15.796;2023-01-15T14:45:45;96313.77;;;6.13;77.64
58223;BME280;44020;50.890;15.796;2023-01-15T14:51:09;96308.14;;;6.13;76.84
58223;BME280;44020;50.890;15.796;2023-01-15T14:53:42;96317.18;;;6.12;77.07
58223;BME280;44020;50.890;15.796;2023-01-15T14:56:42;96334.41;;;6.10;77.19
58223;BME280;44020;50.890;15.796;2023-01-15T15:02:00;96303.72;;;6.13;77.00
58223;BME280;44020;50.890;15.796;2023-01-15T15:07:38;96289.11;;;6.10;76.94
58223;BME280;44020;50.890;15.796;2023-01-15T15:23:37;96344.39;;;5.99;75.57
58223;BME280;44020;50.890;15.796;2023-01-15T15:26:19;96365.44;;;5.96;75.56
58223;BME280;44020;50.890;15.796;2023-01-15T15:29:02;96388.63;;;5.94;75.18